createdAt,value
2018-04-02T00:00:12.626Z,98205
2018-04-02T00:02:40.547Z,98213
2018-04-02T00:05:07.907Z,98201
2018-04-02T00:07:35.107Z,98197
2018-04-02T00:10:13.027Z,98202
2018-04-02T00:12:40.307Z,98210
2018-04-02T00:15:07.507Z,98203
2018-04-02T00:17:34.747Z,98207
2018-04-02T00:20:01.908Z,98221
2018-04-02T00:22:29.047Z,98228
2018-04-02T00:24:56.186Z,98239
2018-04-02T00:27:23.447Z,98234
2018-04-02T00:29:51.448Z,98229
2018-04-02T00:32:18.775Z,98233
2018-04-02T00:34:46.007Z,98229
2018-04-02T00:37:13.307Z,98232
2018-04-02T00:39:40.587Z,98237
2018-04-02T00:42:07.927Z,98239
2018-04-02T00:44:35.173Z,98244
2018-04-02T00:47:02.533Z,98248
2018-04-02T00:49:29.847Z,98235
2018-04-02T00:52:04.073Z,98241
2018-04-02T00:54:31.386Z,98238
2018-04-02T00:56:58.709Z,98246
2018-04-02T00:59:25.946Z,98244
2018-04-02T01:01:53.267Z,98248
2018-04-02T01:04:20.466Z,98247
2018-04-02T01:06:47.678Z,98244
2018-04-02T01:09:14.867Z,98243
2018-04-02T01:11:42.067Z,98259
2018-04-02T01:14:10.066Z,98256
2018-04-02T01:16:37.268Z,98255
2018-04-02T01:19:04.427Z,98254
2018-04-02T01:21:31.667Z,98251
2018-04-02T01:23:58.860Z,98251
2018-04-02T01:26:26.027Z,98257
2018-04-02T01:28:53.207Z,98257
2018-04-02T01:31:20.487Z,98264
2018-04-02T01:33:47.788Z,98266
2018-04-02T01:36:15.092Z,98263
2018-04-02T01:38:43.206Z,98264
2018-04-02T01:41:10.487Z,98267
2018-04-02T01:43:37.767Z,98272
2018-04-02T01:46:05.067Z,98267
2018-04-02T01:48:32.352Z,98265
2018-04-02T01:50:59.626Z,98265
2018-04-02T01:53:26.947Z,98272
2018-04-02T01:55:54.186Z,98268
2018-04-02T01:58:21.426Z,98267
2018-04-02T02:00:48.707Z,98275
2018-04-02T02:03:16.786Z,98278
2018-04-02T02:05:43.987Z,98278
2018-04-02T02:08:11.906Z,98273
2018-04-02T02:10:39.106Z,98274
2018-04-02T02:13:06.386Z,98280
2018-04-02T02:15:33.667Z,98284
2018-04-02T02:18:00.947Z,98280
2018-04-02T02:20:28.146Z,98286
2018-04-02T02:22:55.427Z,98283
2018-04-02T02:25:22.626Z,98281
2018-04-02T02:27:50.506Z,98280
2018-04-02T02:30:17.688Z,98299
2018-04-02T02:32:45.733Z,98301
2018-04-02T02:35:13.072Z,98294
2018-04-02T02:37:40.467Z,98292
2018-04-02T02:40:07.740Z,98292
2018-04-02T02:42:34.990Z,98301
2018-04-02T02:45:02.295Z,98299
2018-04-02T02:47:29.655Z,98302
2018-04-02T02:49:57.021Z,98303
2018-04-02T02:52:24.407Z,98299
2018-04-02T02:54:51.666Z,98303
2018-04-02T02:57:18.947Z,98298
2018-04-02T02:59:46.168Z,98312
2018-04-02T03:02:14.170Z,98310
2018-04-02T03:04:42.266Z,98306
2018-04-02T03:07:10.229Z,98307
2018-04-02T03:09:37.446Z,98303
2018-04-02T03:12:04.626Z,98309
2018-04-02T03:14:31.906Z,98308
2018-04-02T03:16:59.186Z,98301
2018-04-02T03:19:26.387Z,98302
2018-04-02T03:21:53.526Z,98299
2018-04-02T03:24:20.707Z,98302
2018-04-02T03:26:47.907Z,98303
2018-04-02T03:29:15.231Z,98298
2018-04-02T03:31:42.507Z,98305
2018-04-02T03:34:10.506Z,98300
2018-04-02T03:36:37.766Z,98294
2018-04-02T03:39:05.126Z,98305
2018-04-02T03:41:32.426Z,98301
2018-04-02T03:43:59.706Z,98302
2018-04-02T03:46:27.746Z,98301
2018-04-02T03:48:55.106Z,98308
2018-04-02T03:51:22.299Z,98308
2018-04-02T03:53:49.526Z,98311
2018-04-02T03:56:16.808Z,98305
2018-04-02T03:58:44.052Z,98310
2018-04-02T04:01:12.006Z,98305
2018-04-02T04:03:39.271Z,98309
2018-04-02T04:06:06.486Z,98310
2018-04-02T04:08:34.266Z,98306
2018-04-02T04:11:01.506Z,98309
2018-04-02T04:13:29.426Z,98312
2018-04-02T04:15:56.706Z,98308
2018-04-02T04:18:24.629Z,98316
2018-04-02T04:20:51.817Z,98310
2018-04-02T04:23:19.047Z,98310
2018-04-02T04:25:46.226Z,98314
2018-04-02T04:28:14.145Z,98310
2018-04-02T04:30:41.426Z,98310
2018-04-02T04:33:09.446Z,98306
2018-04-02T04:35:36.745Z,98316
2018-04-02T04:38:04.806Z,98314
2018-04-02T04:40:32.088Z,98315
2018-04-02T04:42:59.446Z,98321
2018-04-02T04:45:26.826Z,98323
2018-04-02T04:47:54.106Z,98317
2018-04-02T04:50:21.412Z,98322
2018-04-02T04:52:48.786Z,98320
2018-04-02T04:55:16.132Z,98321
2018-04-02T04:57:44.229Z,98324
2018-04-02T05:00:11.585Z,98324
2018-04-02T05:02:38.787Z,98324
2018-04-02T05:05:06.064Z,98323
2018-04-02T05:07:33.367Z,98329
2018-04-02T05:10:00.626Z,98330
2018-04-02T05:12:27.826Z,98337
2018-04-02T05:14:55.108Z,98328
2018-04-02T05:17:22.408Z,98329
2018-04-02T05:19:49.626Z,98334
2018-04-02T05:22:16.806Z,98330
2018-04-02T05:24:44.147Z,98329
2018-04-02T05:27:11.346Z,98335
2018-04-02T05:29:38.586Z,98335
2018-04-02T05:32:06.581Z,98345
2018-04-02T05:34:33.846Z,98340
2018-04-02T05:37:01.126Z,98341
2018-04-02T05:39:28.532Z,98341
2018-04-02T05:41:55.846Z,98343
2018-04-02T05:44:23.146Z,98341
2018-04-02T05:46:50.416Z,98344
2018-04-02T05:49:17.732Z,98338
2018-04-02T05:51:45.092Z,98348
2018-04-02T05:54:12.412Z,98347
2018-04-02T05:59:14.386Z,98351
2018-04-02T06:01:41.766Z,98360
2018-04-02T06:04:09.025Z,98357
2018-04-02T06:06:36.386Z,98359
2018-04-02T06:09:03.826Z,98354
2018-04-02T06:11:31.225Z,98355
2018-04-02T06:13:58.546Z,98366
2018-04-02T06:16:25.832Z,98367
2018-04-02T06:18:53.083Z,98368
2018-04-02T06:21:20.388Z,98364
2018-04-02T06:23:47.628Z,98367
2018-04-02T06:26:14.944Z,98371
2018-04-02T06:28:42.166Z,98371
2018-04-02T06:31:09.686Z,98368
2018-04-02T06:33:37.106Z,98369
2018-04-02T06:36:04.569Z,98369
2018-04-02T06:38:31.866Z,98367
2018-04-02T06:40:59.666Z,98377
2018-04-02T06:43:26.726Z,98372
2018-04-02T06:45:53.767Z,98373
2018-04-02T06:48:21.586Z,98375
2018-04-02T06:50:48.646Z,98372
2018-04-02T06:53:15.686Z,98379
2018-04-02T06:55:42.794Z,98377
2018-04-02T06:58:09.831Z,98376
2018-04-02T07:00:37.586Z,98374
2018-04-02T07:03:05.426Z,98374
2018-04-02T07:05:32.386Z,98375
2018-04-02T07:07:59.426Z,98376
2018-04-02T07:10:26.465Z,98374
2018-04-02T07:12:53.466Z,98378
2018-04-02T07:15:20.646Z,98371
2018-04-02T07:17:47.826Z,98383
2018-04-02T07:20:14.887Z,98391
2018-04-02T07:22:42.067Z,98393
2018-04-02T07:25:09.066Z,98395
2018-04-02T07:27:36.027Z,98398
2018-04-02T07:30:03.187Z,98401
2018-04-02T07:32:30.109Z,98404
2018-04-02T07:34:57.126Z,98404
2018-04-02T07:37:24.195Z,98413
2018-04-02T07:39:51.119Z,98407
2018-04-02T07:42:18.187Z,98410
2018-04-02T07:44:45.145Z,98414
2018-04-02T07:47:12.194Z,98413
2018-04-02T07:49:40.027Z,98408
2018-04-02T07:52:06.966Z,98406
2018-04-02T07:54:33.946Z,98399
2018-04-02T07:57:00.868Z,98407
2018-04-02T07:59:27.764Z,98401
2018-04-02T08:01:54.723Z,98405
2018-04-02T08:04:21.660Z,98412
2018-04-02T08:06:48.727Z,98413
2018-04-02T08:09:15.746Z,98397
2018-04-02T08:11:42.613Z,98406
2018-04-02T08:14:10.453Z,98404
2018-04-02T08:16:38.187Z,98409
2018-04-02T08:19:05.227Z,98412
2018-04-02T08:21:32.292Z,98406
2018-04-02T08:23:59.875Z,98406
2018-04-02T08:26:26.829Z,98405
2018-04-02T08:28:53.741Z,98414
2018-04-02T08:31:20.826Z,98412
2018-04-02T08:33:47.638Z,98416
2018-04-02T08:36:14.727Z,98414
2018-04-02T08:38:41.775Z,98418
2018-04-02T08:41:08.887Z,98423
2018-04-02T08:43:35.954Z,98416
2018-04-02T08:46:03.763Z,98419
2018-04-02T08:48:30.793Z,98418
2018-04-02T08:50:57.747Z,98415
2018-04-02T08:53:24.663Z,98418
2018-04-02T08:55:51.707Z,98422
2018-04-02T08:58:19.451Z,98421
2018-04-02T09:00:46.406Z,98428
2018-04-02T09:03:13.339Z,98420
2018-04-02T09:05:40.407Z,98426
2018-04-02T09:08:07.388Z,98418
2018-04-02T09:10:34.293Z,98420
2018-04-02T09:13:01.881Z,98415
2018-04-02T09:15:28.939Z,98410
2018-04-02T09:17:56.115Z,98417
2018-04-02T09:20:23.100Z,98405
2018-04-02T09:22:50.753Z,98400
2018-04-02T09:25:17.641Z,98401
2018-04-02T09:27:44.566Z,98397
2018-04-02T09:30:11.412Z,98404
2018-04-02T09:32:38.388Z,98393
2018-04-02T09:35:05.426Z,98393
2018-04-02T09:37:32.467Z,98391
2018-04-02T09:39:59.426Z,98394
2018-04-02T09:42:26.386Z,98396
2018-04-02T09:44:54.147Z,98390
2018-04-02T09:47:21.253Z,98390
2018-04-02T09:49:48.327Z,98390
2018-04-02T09:52:15.332Z,98390
2018-04-02T09:54:42.406Z,98393
2018-04-02T09:57:09.466Z,98384
2018-04-02T09:59:36.487Z,98379
2018-04-02T10:02:09.626Z,98374
2018-04-02T10:04:36.769Z,98374
2018-04-02T10:07:03.767Z,98375
2018-04-02T10:09:30.867Z,98372
2018-04-02T10:11:57.866Z,98367
2018-04-02T10:14:24.801Z,98363
2018-04-02T10:16:51.853Z,98360
2018-04-02T10:19:18.866Z,98348
2018-04-02T10:21:45.746Z,98358
2018-04-02T10:24:12.709Z,98347
2018-04-02T10:26:39.734Z,98344
2018-04-02T10:29:06.706Z,98347
2018-04-02T10:31:33.768Z,98342
2018-04-02T10:34:00.561Z,98340
2018-04-02T10:36:27.606Z,98334
2018-04-02T10:38:54.747Z,98336
2018-04-02T10:41:21.846Z,98331
2018-04-02T10:43:48.826Z,98330
2018-04-02T10:46:15.683Z,98324
2018-04-02T10:48:42.724Z,98319
2018-04-02T10:51:09.746Z,98324
2018-04-02T10:53:36.826Z,98322
2018-04-02T10:56:03.766Z,98316
2018-04-02T10:58:31.506Z,98313
2018-04-02T11:00:58.586Z,98304
2018-04-02T11:03:25.572Z,98307
2018-04-02T11:05:52.629Z,98296
2018-04-02T11:08:19.767Z,98292
2018-04-02T11:10:46.852Z,98289
2018-04-02T11:13:13.908Z,98294
2018-04-02T11:15:41.012Z,98288
2018-04-02T11:18:08.066Z,98284
2018-04-02T11:20:35.187Z,98274
2018-04-02T11:23:02.306Z,98269
2018-04-02T11:25:29.426Z,98278
2018-04-02T11:27:56.546Z,98269
2018-04-02T11:30:23.607Z,98261
2018-04-02T11:32:50.626Z,98260
2018-04-02T11:35:17.666Z,98259
2018-04-02T11:37:44.786Z,98254
2018-04-02T11:40:11.813Z,98256
2018-04-02T11:42:38.932Z,98256
2018-04-02T11:45:06.006Z,98248
2018-04-02T11:47:33.066Z,98244
2018-04-02T11:50:00.106Z,98245
2018-04-02T11:52:27.173Z,98239
2018-04-02T11:54:54.630Z,98232
2018-04-02T11:57:21.631Z,98230
2018-04-02T11:59:48.708Z,98230
2018-04-02T12:02:16.387Z,98230
2018-04-02T12:04:43.366Z,98225
2018-04-02T12:07:10.386Z,98206
2018-04-02T12:09:37.432Z,98209
2018-04-02T12:12:04.466Z,98198
2018-04-02T12:14:31.506Z,98194
2018-04-02T12:16:59.350Z,98197
2018-04-02T12:19:26.406Z,98192
2018-04-02T12:21:54.166Z,98193
2018-04-02T12:24:21.946Z,98185
2018-04-02T12:26:49.786Z,98188
2018-04-02T12:29:16.853Z,98173
2018-04-02T12:31:44.635Z,98162
2018-04-02T12:34:11.746Z,98161
2018-04-02T12:36:38.867Z,98175
2018-04-02T12:39:05.929Z,98156
2018-04-02T12:41:33.027Z,98149
2018-04-02T12:44:07.128Z,98154
2018-04-02T12:46:34.146Z,98145
2018-04-02T12:49:01.186Z,98145
2018-04-02T12:51:28.372Z,98139
2018-04-02T12:53:55.219Z,98134
2018-04-02T12:56:22.347Z,98140
2018-04-02T12:58:49.413Z,98130
2018-04-02T13:01:16.977Z,98125
2018-04-02T13:03:43.866Z,98120
2018-04-02T13:06:10.968Z,98115
2018-04-02T13:08:38.166Z,98121
2018-04-02T13:11:05.177Z,98118
2018-04-02T13:13:32.156Z,98110
2018-04-02T13:15:59.187Z,98111
2018-04-02T13:18:26.143Z,98115
2018-04-02T13:20:53.227Z,98116
2018-04-02T13:23:20.347Z,98111
2018-04-02T13:25:47.366Z,98109
2018-04-02T13:28:14.373Z,98099
2018-04-02T13:30:41.221Z,98101
2018-04-02T13:33:08.947Z,98102
2018-04-02T13:35:35.862Z,98095
2018-04-02T13:38:02.946Z,98093
2018-04-02T13:40:29.986Z,98099
2018-04-02T13:42:57.026Z,98086
2018-04-02T13:45:24.068Z,98080
2018-04-02T13:47:50.882Z,98076
2018-04-02T13:50:17.947Z,98079
2018-04-02T13:52:45.026Z,98082
2018-04-02T13:55:12.087Z,98079
2018-04-02T13:57:39.982Z,98074
2018-04-02T14:00:06.853Z,98070
2018-04-02T14:02:33.972Z,98059
2018-04-02T14:05:01.186Z,98061
2018-04-02T14:07:28.091Z,98067
2018-04-02T14:09:55.033Z,98049
2018-04-02T14:12:22.087Z,98053
2018-04-02T14:14:49.106Z,98054
2018-04-02T14:17:16.081Z,98044
2018-04-02T14:19:43.188Z,98041
2018-04-02T14:22:10.948Z,98035
2018-04-02T14:24:38.728Z,98033
2018-04-02T14:27:05.907Z,98025
2018-04-02T14:29:33.038Z,98027
2018-04-02T14:31:59.998Z,98031
2018-04-02T14:34:27.106Z,98018
2018-04-02T14:36:54.146Z,98025
2018-04-02T14:39:21.920Z,98017
2018-04-02T14:41:50.706Z,98022
2018-04-02T14:44:18.466Z,98013
2018-04-02T14:46:45.499Z,98017
2018-04-02T14:49:12.647Z,98018
2018-04-02T14:51:40.386Z,98013
2018-04-02T14:54:07.526Z,98009
2018-04-02T14:56:34.540Z,97998
2018-04-02T14:59:01.589Z,97996
2018-04-02T15:01:28.692Z,98000
2018-04-02T15:03:55.746Z,97995
2018-04-02T15:06:22.807Z,97996
2018-04-02T15:08:50.626Z,97988
2018-04-02T15:11:17.707Z,97984
2018-04-02T15:13:44.706Z,97977
2018-04-02T15:16:11.766Z,97969
2018-04-02T15:18:38.788Z,97970
2018-04-02T15:21:05.826Z,97969
2018-04-02T15:23:32.866Z,97968
2018-04-02T15:25:59.786Z,97963
2018-04-02T15:28:26.809Z,97959
2018-04-02T15:30:53.906Z,97957
2018-04-02T15:33:20.966Z,97962
2018-04-02T15:35:48.052Z,97956
2018-04-02T15:38:15.187Z,97956
2018-04-02T15:40:42.246Z,97958
2018-04-02T15:43:09.266Z,97951
2018-04-02T15:45:36.306Z,97952
2018-04-02T15:48:03.366Z,97944
2018-04-02T15:50:30.546Z,97946
2018-04-02T15:52:57.586Z,97949
2018-04-02T15:55:24.626Z,97949
2018-04-02T15:57:51.826Z,97949
2018-04-02T16:00:18.906Z,97944
2018-04-02T16:02:45.986Z,97938
2018-04-02T16:05:13.126Z,97941
2018-04-02T16:07:40.246Z,97942
2018-04-02T16:10:07.286Z,97934
2018-04-02T16:12:34.466Z,97916
2018-04-02T16:15:01.507Z,97916
2018-04-02T16:17:28.566Z,97917
2018-04-02T16:19:55.592Z,97916
2018-04-02T16:22:22.547Z,97910
2018-04-02T16:24:49.526Z,97923
2018-04-02T16:27:16.631Z,97918
2018-04-02T16:29:43.666Z,97926
2018-04-02T16:32:10.787Z,97916
2018-04-02T16:34:38.866Z,97910
2018-04-02T16:37:05.985Z,97914
2018-04-02T16:39:33.107Z,97916
2018-04-02T16:42:00.226Z,97914
2018-04-02T16:44:27.306Z,97915
2018-04-02T16:46:54.455Z,97921
2018-04-02T16:49:21.576Z,97910
2018-04-02T16:51:48.626Z,97913
2018-04-02T16:54:15.666Z,97920
2018-04-02T16:56:42.707Z,97914
2018-04-02T16:59:09.686Z,97917
2018-04-02T17:01:36.785Z,97908
2018-04-02T17:04:03.827Z,97910
2018-04-02T17:06:30.786Z,97904
2018-04-02T17:08:57.866Z,97904
2018-04-02T17:11:24.947Z,97900
2018-04-02T17:13:52.028Z,97901
2018-04-02T17:16:19.173Z,97908
2018-04-02T17:18:46.988Z,97894
2018-04-02T17:21:14.086Z,97895
2018-04-02T17:23:41.907Z,97898
2018-04-02T17:26:08.987Z,97899
2018-04-02T17:28:36.806Z,97900
2018-04-02T17:31:04.706Z,97901
2018-04-02T17:33:31.787Z,97897
2018-04-02T17:35:58.807Z,97897
2018-04-02T17:38:26.691Z,97899
2018-04-02T17:40:53.686Z,97893
2018-04-02T17:43:20.707Z,97885
2018-04-02T17:45:47.690Z,97891
2018-04-02T17:48:14.727Z,97890
2018-04-02T17:50:41.812Z,97890
2018-04-02T17:53:09.636Z,97888
2018-04-02T17:55:36.666Z,97889
2018-04-02T17:58:03.766Z,97894
2018-04-02T18:00:30.974Z,97889
2018-04-02T18:02:58.068Z,97891
2018-04-02T18:05:25.267Z,97887
2018-04-02T18:07:52.387Z,97899
2018-04-02T18:10:19.506Z,97894
2018-04-02T18:12:46.628Z,97888
2018-04-02T18:15:13.587Z,97891
2018-04-02T18:17:41.747Z,97889
2018-04-02T18:20:08.787Z,97890
2018-04-02T18:22:35.927Z,97880
2018-04-02T18:25:02.967Z,97881
2018-04-02T18:27:30.009Z,97884
2018-04-02T18:29:57.127Z,97891
2018-04-02T18:32:24.167Z,97884
2018-04-02T18:34:51.421Z,97882
2018-04-02T18:37:18.326Z,97886
2018-04-02T18:39:45.393Z,97888
2018-04-02T18:42:12.947Z,97894
2018-04-02T18:44:40.073Z,97885
2018-04-02T18:47:07.104Z,97887
2018-04-02T18:49:34.088Z,97876
2018-04-02T18:52:01.146Z,97879
2018-04-02T18:54:28.147Z,97879
2018-04-02T18:56:55.106Z,97884
2018-04-02T18:59:22.133Z,97883
2018-04-02T19:01:49.127Z,97890
2018-04-02T19:04:16.067Z,97882
2018-04-02T19:06:43.187Z,97884
2018-04-02T19:09:10.407Z,97878
2018-04-02T19:11:37.467Z,97874
2018-04-02T19:14:04.507Z,97869
2018-04-02T19:16:32.247Z,97868
2018-04-02T19:18:59.307Z,97871
2018-04-02T19:21:26.407Z,97872
2018-04-02T19:23:54.166Z,97869
2018-04-02T19:26:21.927Z,97873
2018-04-02T19:28:49.047Z,97871
2018-04-02T19:31:16.067Z,97868
2018-04-02T19:33:43.027Z,97876
2018-04-02T19:36:10.147Z,97868
2018-04-02T19:38:37.187Z,97857
2018-04-02T19:41:04.267Z,97860
2018-04-02T19:43:31.366Z,97861
2018-04-02T19:45:58.307Z,97869
2018-04-02T19:48:25.412Z,97865
2018-04-02T19:50:52.535Z,97867
2018-04-02T19:53:19.607Z,97871
2018-04-02T19:55:47.367Z,97856
2018-04-02T19:58:14.453Z,97872
2018-04-02T20:00:41.527Z,97874
2018-04-02T20:03:08.613Z,97874
2018-04-02T20:05:35.687Z,97884
2018-04-02T20:08:02.729Z,97879
2018-04-02T20:10:29.829Z,97883
2018-04-02T20:12:56.869Z,97884
2018-04-02T20:15:23.827Z,97887
2018-04-02T20:17:50.790Z,97879
2018-04-02T20:20:18.629Z,97880
2018-04-02T20:22:45.587Z,97879
2018-04-02T20:25:12.587Z,97871
2018-04-02T20:27:39.667Z,97879
2018-04-02T20:30:07.427Z,97876
2018-04-02T20:32:34.533Z,97877
2018-04-02T20:35:01.609Z,97860
2018-04-02T20:37:28.647Z,97869
2018-04-02T20:39:56.427Z,97864
2018-04-02T20:42:23.466Z,97861
2018-04-02T20:44:50.506Z,97861
2018-04-02T20:47:17.532Z,97874
2018-04-02T20:49:44.627Z,97877
2018-04-02T20:52:11.666Z,97873
2018-04-02T20:54:38.626Z,97875
2018-04-02T20:57:05.668Z,97868
2018-04-02T20:59:32.628Z,97870
2018-04-02T21:01:59.586Z,97877
2018-04-02T21:04:26.566Z,97874
2018-04-02T21:06:53.586Z,97877
2018-04-02T21:09:20.549Z,97874
2018-04-02T21:11:47.666Z,97865
2018-04-02T21:14:15.346Z,97864
2018-04-02T21:16:42.407Z,97863
2018-04-02T21:19:09.492Z,97871
2018-04-02T21:21:36.486Z,97873
2018-04-02T21:24:03.546Z,97866
2018-04-02T21:26:30.587Z,97867
2018-04-02T21:31:28.487Z,97861
2018-04-02T21:33:55.607Z,97858
2018-04-02T21:36:22.646Z,97854
2018-04-02T21:38:49.667Z,97855
2018-04-02T21:41:16.667Z,97856
2018-04-02T21:43:43.666Z,97857
2018-04-02T21:46:10.710Z,97853
2018-04-02T21:48:38.246Z,97852
2018-04-02T21:51:05.286Z,97844
2018-04-02T21:53:32.226Z,97840
2018-04-02T21:55:59.200Z,97831
2018-04-02T21:58:26.146Z,97836
2018-04-02T22:00:53.186Z,97829
2018-04-02T22:03:20.327Z,97828
2018-04-02T22:05:47.366Z,97822
2018-04-02T22:08:14.389Z,97816
2018-04-02T22:10:41.466Z,97814
2018-04-02T22:13:08.532Z,97817
2018-04-02T22:15:35.526Z,97809
2018-04-02T22:18:02.646Z,97814
2018-04-02T22:20:29.666Z,97807
2018-04-02T22:22:56.693Z,97817
2018-04-02T22:25:23.747Z,97814
2018-04-02T22:27:50.786Z,97816
2018-04-02T22:30:17.746Z,97812
2018-04-02T22:32:44.789Z,97815
2018-04-02T22:35:11.745Z,97822
2018-04-02T22:37:38.710Z,97820
2018-04-02T22:40:05.826Z,97810
2018-04-02T22:42:32.806Z,97834
2018-04-02T22:45:00.547Z,97816
2018-04-02T22:47:27.506Z,97816
2018-04-02T22:49:54.586Z,97818
2018-04-02T22:52:21.606Z,97819
2018-04-02T22:54:48.786Z,97822
2018-04-02T22:57:15.847Z,97818
2018-04-02T22:59:42.886Z,97819
2018-04-02T23:02:09.972Z,97818
2018-04-02T23:04:37.012Z,97822
2018-04-02T23:07:04.148Z,97826
2018-04-02T23:09:31.266Z,97829
2018-04-02T23:11:58.312Z,97833
2018-04-02T23:14:25.361Z,97837
2018-04-02T23:16:52.466Z,97837
2018-04-02T23:19:19.426Z,97827
2018-04-02T23:21:47.186Z,97822
2018-04-02T23:24:14.947Z,97821
2018-04-02T23:26:42.706Z,97832
2018-04-02T23:29:16.626Z,97829
2018-04-02T23:31:44.405Z,97837
2018-04-02T23:34:12.150Z,97830
2018-04-02T23:36:39.907Z,97824
2018-04-02T23:39:06.986Z,97822
2018-04-02T23:41:34.086Z,97823
2018-04-02T23:44:01.187Z,97803
2018-04-02T23:46:28.249Z,97798
2018-04-02T23:48:55.286Z,97790
2018-04-02T23:51:22.346Z,97776
2018-04-02T23:53:49.346Z,97776
2018-04-02T23:56:17.147Z,97775
2018-04-02T23:58:44.213Z,97780
